Flight Track Log - Related Links

Times and Time Zones

All times are in EST time to prevent confusion due to time zone crossing. See the SKW5424 flight status page for this flight to view local times or setup timezone preferences in your user account.

Time Position Orientation Groundspeed Altitude Reporting Facility
EST Latitude Longitude Course Direction KTS MPH feet Rate Location/Type
Wed 10:09:57 PM 47.4603 -122.3131 180° South 139 160 1,200  Level Seattle Center
Wed 10:10:58 PM 47.4761 -122.3664 294° West 186 214 3,500 2,452 Climbing Seattle Center
Wed 10:11:52 PM 47.4689 -122.4392 262° West 198 228 5,900 2,504 Climbing Seattle Center
Wed 10:12:53 PM 47.4200 -122.4697 203° Southwest 212 244 8,300 2,066 Climbing Seattle Center
Wed 10:13:54 PM 47.3661 -122.4478 165° South 202 232 10,100 1,574 Climbing Seattle Center
Wed 10:14:55 PM 47.3081 -122.4300 168° South 212 244 11,500 1,426 Climbing Seattle Center
Wed 10:15:00 PM 47.0015 -122.3823 180° South  Level Estimated
Wed 10:15:56 PM 47.2475 -122.4083 166° South 223 257 13,000  Level Seattle Center
Wed 10:16:57 PM 47.1869 -122.3881 167° South 224 258 14,400 984 Climbing Seattle Center
Wed 10:17:58 PM 47.1172 -122.3650 167° South 237 273 15,000 295 Climbing Seattle Center
Wed 10:18:59 PM 47.0442 -122.3411 167° South 265 305 15,000  Level Seattle Center
Wed 10:20:00 PM 46.9708 -122.3167 167° South 271 312 15,000  Level Seattle Center
Wed 10:21:01 PM 46.8978 -122.3039 173° South 266 306 15,000  Level Seattle Center
Wed 10:22:02 PM 46.8172 -122.3061 181° South 269 310 15,000  Level Seattle Center
Wed 10:23:02 PM 46.7419 -122.3128 183° South 271 312 15,000  Level Seattle Center
Wed 10:24:03 PM 46.6683 -122.3228 185° South 270 311 15,000  Level Seattle Center
Wed 10:25:04 PM 46.5928 -122.3369 187° South 273 314 15,000 -246 Level Seattle Center
Wed 10:26:05 PM 46.5167 -122.3517 188° South 276 318 14,500 -643 Descending Seattle Center
Wed 10:26:28 PM 46.4847 -122.3592 189° South 283 326 14,100 -984 Descending Seattle Center
Wed 10:27:06 PM 46.4292 -122.3708 188° South 292 336 13,500 -923 Descending Seattle Center
Wed 10:27:59 PM 46.3608 -122.3800 185° South 296 341 12,700 -885 Descending Seattle Center
Wed 10:28:07 PM 46.3478 -122.3822 187° South 294 338 12,600 -787 Descending Seattle Center
Wed 10:29:00 PM 46.2803 -122.3886 184° South 289 333 11,900 -885 Descending Seattle Center
Wed 10:29:08 PM 46.2683 -122.3906 186° South 290 334 11,700 -885 Descending Seattle Center
Wed 10:30:01 PM 46.1944 -122.3933 181° South 286 329 11,000 -787 Descending Seattle Center
Wed 10:30:09 PM 46.1894 -122.3956 197° South 284 327 10,900 -870 Descending Seattle Center
Wed 10:31:10 PM 46.1058 -122.4031 184° South 281 323 10,000 -1,111 Descending Seattle Center
Wed 10:31:57 PM 46.0472 -122.4264 195° South 283 326 8,900 -1,475 Descending Seattle Center
Wed 10:32:11 PM 46.0311 -122.4356 202° Southwest 282 325 8,500 -1,800 Descending Seattle Center
Wed 10:32:57 PM 45.9742 -122.4725 204° Southwest 295 339 7,100 -1,700 Descending Seattle Center
Wed 10:33:11 PM 45.9586 -122.4875 214° Southwest 290 334 6,800 -1,527 Descending Seattle Center
Wed 10:33:52 PM 45.9144 -122.5311 214° Southwest 284 327 5,700 -1,475 Descending Seattle Center
Wed 10:34:12 PM 45.8944 -122.5519 216° Southwest 282 325 5,300 -1,630 Descending Seattle Center
Wed 10:35:13 PM 45.8303 -122.6183 216° Southwest 286 329 3,500 -1,846 Descending Seattle Center
Wed 10:35:17 PM 45.8247 -122.6239 215° Southwest 288 331 3,300 -885 Descending Seattle Center
Wed 10:36:14 PM 45.7628 -122.6867 215° Southwest 277 319 2,600 -700 Descending Seattle Center
Wed 10:36:17 PM 45.7636 -122.6861 25° Northeast 272 313 2,600 -98 Level Seattle Center
Wed 10:37:15 PM 45.7033 -122.7428 213° Southwest 261 300 2,500 -98 Descending Seattle Center
Wed 10:37:18 PM 45.7031 -122.7417 110° East 257 296 2,500 -150 Level Seattle Center
Wed 10:37:55 PM 45.6658 -122.7508 190° South 249 287 2,400 -517 Descending Seattle Center
Wed 10:38:16 PM 45.6467 -122.7261 138° Southeast 241 277 2,000 -951 Descending Seattle Center
Wed 10:39:17 PM 45.6175 -122.6553 120° Southeast 210 242 1,100 -952 Descending Seattle Center
Wed 10:39:19 PM 45.6161 -122.6536 140° Southeast 181 208 1,000 -800 Descending Seattle Center
Wed 10:40:02 PM 45.6028 -122.6189 119° Southeast 122 140 500 -724 Descending Seattle Center
Wed 10:40:17 PM 45.5997 -122.6067 110° East 144 166 300 -316 Descending Seattle Center
Wed 10:41:18 PM 45.5878 -122.5797 122° Southeast 108 124 100 -197 Descending Seattle Center
Wed 10:43:00 PM 45.5833 -122.5833 270° West  Level FlightAware Approximate
Wed 10:50:00 PM 45.5887 -122.5969 270° West  Level Estimated

Login

Don't have an account? Register now (free) for customized features, flight alerts, and more!